createdAt,value
2022-09-30T00:00:10.961Z,15.13
2022-09-30T00:02:38.649Z,14.85
2022-09-30T00:05:07.003Z,14.75
2022-09-30T00:07:34.682Z,14.38
2022-09-30T00:10:02.829Z,14.88
2022-09-30T00:12:30.919Z,15.43
2022-09-30T00:14:59.946Z,14.82
2022-09-30T00:17:28.238Z,14.95
2022-09-30T00:19:55.896Z,14.23
2022-09-30T00:22:23.559Z,14.40
2022-09-30T00:24:51.450Z,14.77
2022-09-30T00:27:19.911Z,15.68
2022-09-30T00:29:47.546Z,16.30
2022-09-30T00:32:16.603Z,17.73
2022-09-30T00:34:44.385Z,17.10
2022-09-30T00:37:15.141Z,17.08
2022-09-30T00:39:42.809Z,17.88
2022-09-30T00:42:14.158Z,17.70
2022-09-30T00:44:53.536Z,17.75
2022-09-30T00:47:50.375Z,18.38
2022-09-30T00:50:28.919Z,17.98
2022-09-30T00:53:03.167Z,15.82
2022-09-30T00:55:47.739Z,17.00
2022-09-30T00:58:21.239Z,15.25
2022-09-30T01:00:49.348Z,15.10
2022-09-30T01:03:20.555Z,15.15
2022-09-30T01:05:48.222Z,16.63
2022-09-30T01:08:18.598Z,18.55
2022-09-30T01:10:46.501Z,19.08
2022-09-30T01:13:15.555Z,19.52
2022-09-30T01:15:58.965Z,19.77
2022-09-30T01:18:35.678Z,18.35
2022-09-30T01:21:28.083Z,19.17
2022-09-30T01:24:13.888Z,17.85
2022-09-30T01:26:57.608Z,17.80
2022-09-30T01:29:45.267Z,18.20
2022-09-30T01:32:20.803Z,18.88
2022-09-30T01:37:34.011Z,17.30
2022-09-30T01:40:06.375Z,18.60
2022-09-30T01:42:42.489Z,17.73
2022-09-30T01:45:17.906Z,18.50
2022-09-30T01:47:52.078Z,19.58
2022-09-30T01:50:25.002Z,17.90
2022-09-30T01:53:01.708Z,19.65
2022-09-30T01:55:34.158Z,20.73
2022-09-30T01:58:06.993Z,19.58
2022-09-30T02:00:39.556Z,19.65
2022-09-30T02:03:16.271Z,18.45
2022-09-30T02:05:51.082Z,17.13
2022-09-30T02:08:24.621Z,17.00
2022-09-30T02:10:57.157Z,16.73
2022-09-30T02:13:32.924Z,16.50
2022-09-30T02:16:13.006Z,15.77
2022-09-30T02:18:47.074Z,16.10
2022-09-30T02:21:19.143Z,16.25
2022-09-30T02:23:50.724Z,15.25
2022-09-30T02:26:23.048Z,15.38
2022-09-30T02:28:55.229Z,14.85
2022-09-30T02:31:25.448Z,15.07
2022-09-30T02:33:58.778Z,16.00
2022-09-30T02:36:31.839Z,15.48
2022-09-30T02:39:05.097Z,16.42
2022-09-30T02:41:39.865Z,16.83
2022-09-30T02:44:07.911Z,16.05
2022-09-30T02:46:44.684Z,15.80
2022-09-30T02:49:24.173Z,19.17
2022-09-30T02:52:05.436Z,17.27
2022-09-30T02:54:37.521Z,15.85
2022-09-30T02:57:15.893Z,15.68
2022-09-30T02:59:43.651Z,16.35
2022-09-30T03:02:11.424Z,15.63
2022-09-30T03:04:42.808Z,16.90
2022-09-30T03:07:11.510Z,15.63
2022-09-30T03:09:39.566Z,15.20
2022-09-30T03:12:16.724Z,14.60
2022-09-30T03:15:01.375Z,14.32
2022-09-30T03:17:49.620Z,14.95
2022-09-30T03:20:34.343Z,14.27
2022-09-30T03:23:24.531Z,15.18
2022-09-30T03:25:59.992Z,16.15
2022-09-30T03:28:32.344Z,16.58
2022-09-30T03:31:07.300Z,16.40
2022-09-30T03:33:45.250Z,15.98
2022-09-30T03:36:20.056Z,14.80
2022-09-30T03:38:52.997Z,16.00
2022-09-30T03:41:28.544Z,15.25
2022-09-30T03:46:31.631Z,15.02
2022-09-30T03:49:03.415Z,15.38
2022-09-30T03:51:33.777Z,15.50
2022-09-30T03:54:01.504Z,16.00
2022-09-30T03:56:31.808Z,14.98
2022-09-30T03:59:01.598Z,15.13
2022-09-30T04:01:29.503Z,15.35
2022-09-30T04:03:57.253Z,15.48
2022-09-30T04:06:26.175Z,16.35
2022-09-30T04:08:55.242Z,16.33
2022-09-30T04:11:23.132Z,15.02
2022-09-30T04:13:50.857Z,16.45
2022-09-30T04:16:19.043Z,16.48
2022-09-30T04:18:46.791Z,16.88
2022-09-30T04:21:15.697Z,16.50
2022-09-30T04:23:43.927Z,16.15
2022-09-30T04:26:16.305Z,15.25
2022-09-30T04:28:44.516Z,13.98
2022-09-30T04:31:13.553Z,16.50
2022-09-30T04:33:41.717Z,16.05
2022-09-30T04:36:09.585Z,15.48
2022-09-30T04:38:37.384Z,15.15
2022-09-30T04:41:06.414Z,15.00
2022-09-30T04:43:35.775Z,14.85
2022-09-30T04:46:03.605Z,16.02
2022-09-30T04:48:32.362Z,15.80
2022-09-30T04:51:00.917Z,16.52
2022-09-30T04:53:29.342Z,17.20
2022-09-30T04:56:00.971Z,16.75
2022-09-30T04:58:32.224Z,16.08
2022-09-30T05:01:05.139Z,18.20
2022-09-30T05:03:32.902Z,17.90
2022-09-30T05:06:00.658Z,19.67
2022-09-30T05:08:28.729Z,17.38
2022-09-30T05:10:58.078Z,16.25
2022-09-30T05:13:26.646Z,16.30
2022-09-30T05:15:54.395Z,15.77
2022-09-30T05:18:26.380Z,14.73
2022-09-30T05:20:55.076Z,15.15
2022-09-30T05:23:22.821Z,13.48
2022-09-30T05:25:51.655Z,14.18
2022-09-30T05:28:19.983Z,15.27
2022-09-30T05:30:49.926Z,14.38
2022-09-30T05:33:18.124Z,15.00
2022-09-30T05:35:47.821Z,14.70
2022-09-30T05:38:15.518Z,14.95
2022-09-30T05:40:43.205Z,15.32
2022-09-30T05:43:11.363Z,15.00
2022-09-30T05:45:39.308Z,16.25
2022-09-30T05:48:07.782Z,15.88
2022-09-30T05:50:35.528Z,16.70
2022-09-30T05:53:04.586Z,17.50
2022-09-30T05:55:35.835Z,16.40
2022-09-30T05:58:07.075Z,16.00
2022-09-30T06:00:34.796Z,17.23
2022-09-30T06:03:02.560Z,16.73
2022-09-30T06:05:30.571Z,16.88
2022-09-30T06:07:58.274Z,16.50
2022-09-30T06:10:27.425Z,15.63
2022-09-30T06:12:55.197Z,17.08
2022-09-30T06:15:22.910Z,19.05
2022-09-30T06:17:53.903Z,18.02
2022-09-30T06:20:21.929Z,19.55
2022-09-30T06:22:49.863Z,18.63
2022-09-30T06:25:17.909Z,18.95
2022-09-30T06:27:47.631Z,18.23
2022-09-30T06:30:15.745Z,18.17
2022-09-30T06:32:44.002Z,18.15
2022-09-30T06:35:12.099Z,18.83
2022-09-30T06:37:41.924Z,17.10
2022-09-30T06:40:10.623Z,19.42
2022-09-30T06:42:38.368Z,17.52
2022-09-30T06:45:11.187Z,18.73
2022-09-30T06:47:45.413Z,18.60
2022-09-30T06:50:25.444Z,19.70
2022-09-30T06:52:57.892Z,20.02
2022-09-30T06:55:27.112Z,19.52
2022-09-30T06:57:55.459Z,18.20
2022-09-30T07:00:24.636Z,19.52
2022-09-30T07:02:52.432Z,18.90
2022-09-30T07:05:20.232Z,19.00
2022-09-30T07:07:49.163Z,20.05
2022-09-30T07:10:17.071Z,19.15
2022-09-30T07:12:44.930Z,18.58
2022-09-30T07:15:13.893Z,18.02
2022-09-30T07:17:44.049Z,18.83
2022-09-30T07:20:12.130Z,19.20
2022-09-30T07:22:40.723Z,17.52
2022-09-30T07:25:09.725Z,17.33
2022-09-30T07:27:37.466Z,16.83
2022-09-30T07:30:14.227Z,17.23
2022-09-30T07:32:45.396Z,17.73
2022-09-30T07:35:13.597Z,16.63
2022-09-30T07:37:41.548Z,15.38
2022-09-30T07:40:10.481Z,16.70
2022-09-30T07:42:43.217Z,16.33
2022-09-30T07:45:12.104Z,15.70
2022-09-30T07:47:39.989Z,14.95
2022-09-30T07:50:10.969Z,14.38
2022-09-30T07:52:39.573Z,14.50
2022-09-30T07:55:08.031Z,14.25
2022-09-30T07:57:35.876Z,13.30
2022-09-30T08:00:17.260Z,12.93
2022-09-30T08:02:52.780Z,12.38
2022-09-30T08:05:22.208Z,12.48
2022-09-30T08:07:50.433Z,11.45
2022-09-30T08:12:54.455Z,10.35
2022-09-30T08:15:25.905Z,11.93
2022-09-30T08:17:53.934Z,8.10
2022-09-30T08:20:23.625Z,9.73
2022-09-30T08:22:53.748Z,7.05
2022-09-30T08:25:21.529Z,7.72
2022-09-30T08:27:49.412Z,7.43
2022-09-30T08:30:17.445Z,7.65
2022-09-30T08:32:45.342Z,7.95
2022-09-30T08:35:13.125Z,8.10
2022-09-30T08:37:42.329Z,7.15
2022-09-30T08:40:20.386Z,6.13
2022-09-30T08:43:03.694Z,5.53
2022-09-30T08:45:43.547Z,5.90
2022-09-30T08:48:28.783Z,4.78
2022-09-30T08:51:08.082Z,4.57
2022-09-30T08:53:42.064Z,4.05
2022-09-30T08:56:18.613Z,4.72
2022-09-30T08:58:49.851Z,4.57
2022-09-30T09:01:23.569Z,4.38
2022-09-30T09:03:51.414Z,4.57
2022-09-30T09:06:27.268Z,3.97
2022-09-30T09:09:10.483Z,3.88
2022-09-30T09:11:53.545Z,3.83
2022-09-30T09:14:33.644Z,3.97
2022-09-30T09:17:15.261Z,3.70
2022-09-30T09:19:46.874Z,4.10
2022-09-30T09:22:15.147Z,4.10
2022-09-30T09:24:47.335Z,4.30
2022-09-30T09:27:21.847Z,3.65
2022-09-30T09:30:00.157Z,4.07
2022-09-30T09:32:29.504Z,4.15
2022-09-30T09:35:01.424Z,4.15
2022-09-30T09:37:58.259Z,4.05
2022-09-30T09:40:35.898Z,4.25
2022-09-30T09:43:14.227Z,2.95
2022-09-30T09:45:48.617Z,2.70
2022-09-30T09:48:17.463Z,2.45
2022-09-30T09:50:56.871Z,2.50
2022-09-30T09:53:41.352Z,2.10
2022-09-30T09:56:18.675Z,2.13
2022-09-30T09:59:08.996Z,2.30
2022-09-30T10:01:39.010Z,2.70
2022-09-30T10:04:19.332Z,2.40
2022-09-30T10:06:54.141Z,2.33
2022-09-30T10:09:36.879Z,2.13
2022-09-30T10:12:28.498Z,1.95
2022-09-30T10:15:02.422Z,1.90
2022-09-30T10:17:32.986Z,2.25
2022-09-30T10:20:07.077Z,2.20
2022-09-30T10:22:36.863Z,2.00
2022-09-30T10:25:19.044Z,1.80
2022-09-30T10:27:57.005Z,1.70
2022-09-30T10:30:33.572Z,2.20
2022-09-30T10:33:04.262Z,2.20
2022-09-30T10:35:32.322Z,1.73
2022-09-30T10:38:01.401Z,1.52
2022-09-30T10:40:31.244Z,1.67
2022-09-30T10:43:00.299Z,1.70
2022-09-30T10:45:33.976Z,1.50
2022-09-30T10:48:07.569Z,1.50
2022-09-30T10:50:35.636Z,1.35
2022-09-30T10:53:12.314Z,1.38
2022-09-30T10:55:44.800Z,1.70
2022-09-30T10:58:27.421Z,1.55
2022-09-30T11:00:59.206Z,1.60
2022-09-30T11:03:36.237Z,1.10
2022-09-30T11:06:05.214Z,1.50
2022-09-30T11:08:40.147Z,1.05
2022-09-30T11:11:14.025Z,1.08
2022-09-30T11:13:50.088Z,1.27
2022-09-30T11:16:26.164Z,1.17
2022-09-30T11:19:01.636Z,1.20
2022-09-30T11:21:36.451Z,1.33
2022-09-30T11:24:17.919Z,1.40
2022-09-30T11:26:51.598Z,1.40
2022-09-30T11:29:40.471Z,1.15
2022-09-30T11:32:19.707Z,1.38
2022-09-30T11:34:57.785Z,2.10
2022-09-30T11:37:40.164Z,1.60
2022-09-30T11:40:31.252Z,1.60
2022-09-30T11:43:09.635Z,1.35
2022-09-30T11:45:56.977Z,1.80
2022-09-30T11:48:39.225Z,2.10
2022-09-30T11:51:15.501Z,1.67
2022-09-30T11:53:53.205Z,1.83
2022-09-30T11:56:39.217Z,2.00
2022-09-30T12:01:45.121Z,1.80
2022-09-30T12:04:17.034Z,1.60
2022-09-30T12:06:50.535Z,1.65
2022-09-30T12:09:23.937Z,1.83
2022-09-30T12:11:57.615Z,1.70
2022-09-30T12:14:31.064Z,1.70
2022-09-30T12:17:05.648Z,1.42
2022-09-30T12:19:39.230Z,1.38
2022-09-30T12:22:13.024Z,1.40
2022-09-30T12:24:42.885Z,1.80
2022-09-30T12:27:17.708Z,1.48
2022-09-30T12:30:12.690Z,1.50
2022-09-30T12:33:11.688Z,1.48
2022-09-30T12:36:00.020Z,1.40
2022-09-30T12:38:43.182Z,1.40
2022-09-30T12:41:25.543Z,1.50
2022-09-30T12:44:30.472Z,1.42
2022-09-30T12:47:22.265Z,1.50
2022-09-30T12:49:52.096Z,1.42
2022-09-30T12:52:22.561Z,2.00
2022-09-30T12:54:54.634Z,1.70
2022-09-30T12:57:27.318Z,1.88
2022-09-30T12:59:59.066Z,1.83
2022-09-30T13:02:35.520Z,1.70
2022-09-30T13:05:40.279Z,1.40
2022-09-30T13:08:27.599Z,1.20
2022-09-30T13:10:59.269Z,1.42
2022-09-30T13:13:30.573Z,1.48
2022-09-30T13:16:03.253Z,1.40
2022-09-30T13:19:02.906Z,1.63
2022-09-30T13:21:32.183Z,1.60
2022-09-30T13:24:01.784Z,1.50
2022-09-30T13:26:40.752Z,1.70
2022-09-30T13:29:48.365Z,1.50
2022-09-30T13:32:33.700Z,1.73
2022-09-30T13:35:02.080Z,1.80
2022-09-30T13:37:38.192Z,1.33
2022-09-30T13:40:18.230Z,1.85
2022-09-30T13:42:54.438Z,1.80
2022-09-30T13:45:33.898Z,1.90
2022-09-30T13:48:10.959Z,1.60
2022-09-30T13:50:46.537Z,1.60
2022-09-30T13:55:50.839Z,1.42
2022-09-30T13:58:39.492Z,1.60
2022-09-30T14:01:14.576Z,1.50
2022-09-30T14:04:04.639Z,1.80
2022-09-30T14:06:41.952Z,1.90
2022-09-30T14:09:30.150Z,1.80
2022-09-30T14:12:29.933Z,1.70
2022-09-30T14:15:35.891Z,1.77
2022-09-30T14:18:30.268Z,1.70
2022-09-30T14:21:18.341Z,1.50
2022-09-30T14:23:46.208Z,1.48
2022-09-30T14:26:33.461Z,1.55
2022-09-30T14:29:10.501Z,1.60
2022-09-30T14:31:45.053Z,1.77
2022-09-30T14:34:14.362Z,1.33
2022-09-30T14:36:42.611Z,1.60
2022-09-30T14:39:17.071Z,1.73
2022-09-30T14:41:51.280Z,1.75
2022-09-30T14:44:21.377Z,1.70
2022-09-30T14:46:51.297Z,1.88
2022-09-30T14:49:29.893Z,1.80
2022-09-30T14:51:59.917Z,1.75
2022-09-30T14:54:29.105Z,1.83
2022-09-30T14:56:57.912Z,1.90
2022-09-30T14:59:28.731Z,1.73
2022-09-30T15:02:00.596Z,2.00
2022-09-30T15:04:31.845Z,2.15
2022-09-30T15:07:01.392Z,1.92
2022-09-30T15:09:33.356Z,1.92
2022-09-30T15:12:06.440Z,1.90
2022-09-30T15:14:36.192Z,1.95
2022-09-30T15:17:06.309Z,1.75
2022-09-30T15:19:35.996Z,2.00
2022-09-30T15:22:05.846Z,2.20
2022-09-30T15:24:36.357Z,2.22
2022-09-30T15:27:05.602Z,2.30
2022-09-30T15:29:33.295Z,2.20
2022-09-30T15:32:05.726Z,2.28
2022-09-30T15:34:34.135Z,1.90
2022-09-30T15:37:06.728Z,2.03
2022-09-30T15:39:55.108Z,1.85
2022-09-30T15:42:32.053Z,2.08
2022-09-30T15:44:59.745Z,2.20
2022-09-30T15:47:29.371Z,2.03
2022-09-30T15:49:57.107Z,1.98
2022-09-30T15:52:30.726Z,2.10
2022-09-30T15:54:59.049Z,2.10
2022-09-30T15:57:46.727Z,2.13
2022-09-30T16:00:35.745Z,2.00
2022-09-30T16:03:25.619Z,2.10
2022-09-30T16:05:54.132Z,2.20
2022-09-30T16:08:25.378Z,1.83
2022-09-30T16:10:56.566Z,2.17
2022-09-30T16:13:28.815Z,1.98
2022-09-30T16:15:58.365Z,2.50
2022-09-30T16:18:33.980Z,2.20
2022-09-30T16:21:05.394Z,2.10
2022-09-30T16:23:38.744Z,2.58
2022-09-30T16:26:14.258Z,2.22
2022-09-30T16:28:43.291Z,2.50
2022-09-30T16:31:11.651Z,2.50
2022-09-30T16:33:43.380Z,27.90
2022-09-30T16:36:11.930Z,21.45
2022-09-30T16:38:39.778Z,11.90
2022-09-30T16:41:07.417Z,6.78
2022-09-30T16:43:35.038Z,4.15
2022-09-30T16:46:03.470Z,4.40
2022-09-30T16:48:31.476Z,5.78
2022-09-30T16:51:04.534Z,5.80
2022-09-30T16:53:32.312Z,4.30
2022-09-30T16:56:00.188Z,3.60
2022-09-30T16:58:27.884Z,3.00
2022-09-30T17:00:55.586Z,3.38
2022-09-30T17:03:23.272Z,3.13
2022-09-30T17:05:52.588Z,3.05
2022-09-30T17:08:23.815Z,3.20
2022-09-30T17:10:51.667Z,3.58
2022-09-30T17:13:20.230Z,3.33
2022-09-30T17:15:52.010Z,3.40
2022-09-30T17:18:20.738Z,2.95
2022-09-30T17:20:52.606Z,2.65
2022-09-30T17:23:23.501Z,2.92
2022-09-30T17:25:51.504Z,2.90
2022-09-30T17:28:19.351Z,4.07
2022-09-30T17:30:49.246Z,3.88
2022-09-30T17:33:17.283Z,3.92
2022-09-30T17:35:45.066Z,4.43
2022-09-30T17:38:14.295Z,3.42
2022-09-30T17:41:00.524Z,3.83
2022-09-30T17:43:28.209Z,3.58
2022-09-30T17:46:00.037Z,4.22
2022-09-30T17:48:27.744Z,3.03
2022-09-30T17:50:55.589Z,2.60
2022-09-30T17:53:23.932Z,2.90
2022-09-30T17:56:03.910Z,3.22
2022-09-30T17:58:31.636Z,5.40
2022-09-30T18:00:59.823Z,9.38
2022-09-30T18:03:28.156Z,9.68
2022-09-30T18:05:59.242Z,9.20
2022-09-30T18:08:28.099Z,11.35
2022-09-30T18:10:57.868Z,12.23
2022-09-30T18:13:25.920Z,9.73
2022-09-30T18:15:53.933Z,10.43
2022-09-30T18:18:21.650Z,9.75
2022-09-30T18:20:51.520Z,10.13
2022-09-30T18:23:19.515Z,9.02
2022-09-30T18:25:49.209Z,10.98
2022-09-30T18:28:18.448Z,9.82
2022-09-30T18:30:46.604Z,9.57
2022-09-30T18:33:17.182Z,10.18
2022-09-30T18:35:44.924Z,12.27
2022-09-30T18:38:14.805Z,13.25
2022-09-30T18:40:49.919Z,11.57
2022-09-30T18:43:19.315Z,10.70
2022-09-30T18:45:54.419Z,9.60
2022-09-30T18:48:22.123Z,8.50
2022-09-30T18:50:51.392Z,9.25
2022-09-30T18:53:20.406Z,9.07
2022-09-30T18:55:48.553Z,10.18
2022-09-30T18:58:17.169Z,8.80
2022-09-30T19:00:46.184Z,8.55
2022-09-30T19:03:16.084Z,7.63
2022-09-30T19:05:43.712Z,6.63
2022-09-30T19:08:12.514Z,6.32
2022-09-30T19:10:42.181Z,6.93
2022-09-30T19:13:10.177Z,6.00
2022-09-30T19:15:39.225Z,6.07
2022-09-30T19:18:08.208Z,5.50
2022-09-30T19:20:41.894Z,5.65
2022-09-30T19:23:10.761Z,4.25
2022-09-30T19:25:39.815Z,4.35
2022-09-30T19:28:07.503Z,4.20
2022-09-30T19:30:35.176Z,3.90
2022-09-30T19:33:02.802Z,3.92
2022-09-30T19:35:39.824Z,3.63
2022-09-30T19:38:09.244Z,3.80
2022-09-30T19:40:37.305Z,3.78
2022-09-30T19:43:05.273Z,3.88
2022-09-30T19:45:33.006Z,3.95
2022-09-30T19:48:00.887Z,4.38
2022-09-30T19:50:28.524Z,4.68
2022-09-30T19:52:57.902Z,3.67
2022-09-30T19:55:26.063Z,3.30
2022-09-30T19:57:53.945Z,3.95
2022-09-30T20:00:21.625Z,3.72
2022-09-30T20:02:52.608Z,3.47
2022-09-30T20:05:20.534Z,3.80
2022-09-30T20:07:50.943Z,5.50
2022-09-30T20:10:20.224Z,4.78
2022-09-30T20:12:47.851Z,14.65
2022-09-30T20:15:33.533Z,5.53
2022-09-30T20:18:01.168Z,4.03
2022-09-30T20:20:42.129Z,3.55
2022-09-30T20:23:09.726Z,4.10
2022-09-30T20:25:39.046Z,3.80
2022-09-30T20:28:07.318Z,4.88
2022-09-30T20:30:39.741Z,4.47
2022-09-30T20:33:07.349Z,4.45
2022-09-30T20:35:36.503Z,7.65
2022-09-30T20:38:04.527Z,8.13
2022-09-30T20:40:33.728Z,8.38
2022-09-30T20:43:04.082Z,6.28
2022-09-30T20:45:31.767Z,4.75
2022-09-30T20:47:59.394Z,4.18
2022-09-30T20:50:35.864Z,4.32
2022-09-30T20:53:09.043Z,4.57
2022-09-30T20:55:39.245Z,4.57
2022-09-30T20:58:09.363Z,4.25
2022-09-30T21:00:39.568Z,4.55
2022-09-30T21:03:09.500Z,4.47
2022-09-30T21:05:37.163Z,4.63
2022-09-30T21:08:07.273Z,4.65
2022-09-30T21:10:36.795Z,5.82
2022-09-30T21:13:10.358Z,6.53
2022-09-30T21:15:38.058Z,8.73
2022-09-30T21:18:05.735Z,6.82
2022-09-30T21:20:33.389Z,6.97
2022-09-30T21:23:03.248Z,6.55
2022-09-30T21:25:30.953Z,6.10
2022-09-30T21:27:58.638Z,6.57
2022-09-30T21:30:28.197Z,5.65
2022-09-30T21:32:55.815Z,5.93
2022-09-30T21:35:23.486Z,6.22
2022-09-30T21:37:51.132Z,6.20
2022-09-30T21:40:18.943Z,5.75
2022-09-30T21:42:46.567Z,6.93
2022-09-30T21:45:14.234Z,7.10
2022-09-30T21:47:43.193Z,6.72
2022-09-30T21:50:11.073Z,6.57
2022-09-30T21:52:39.151Z,7.18
2022-09-30T21:55:08.036Z,7.72
2022-09-30T21:57:35.717Z,8.25
2022-09-30T22:00:03.604Z,8.18
2022-09-30T22:02:31.327Z,7.55
2022-09-30T22:05:00.442Z,7.28
2022-09-30T22:07:28.105Z,7.72
2022-09-30T22:09:55.725Z,7.63
2022-09-30T22:12:23.331Z,6.55
2022-09-30T22:14:50.999Z,6.93
2022-09-30T22:17:18.679Z,7.80
2022-09-30T22:19:46.290Z,6.35
2022-09-30T22:22:15.259Z,5.95
2022-09-30T22:24:42.864Z,5.65
2022-09-30T22:27:11.317Z,6.43
2022-09-30T22:29:38.982Z,5.88
2022-09-30T22:32:06.722Z,6.65
2022-09-30T22:34:51.824Z,6.40
2022-09-30T22:37:38.223Z,7.07
2022-09-30T22:40:06.719Z,7.28
2022-09-30T22:42:35.705Z,7.20
2022-09-30T22:45:03.527Z,6.60
2022-09-30T22:47:31.726Z,6.50
2022-09-30T22:49:59.471Z,5.85
2022-09-30T22:52:31.945Z,7.30
2022-09-30T22:54:59.641Z,7.10
2022-09-30T22:57:27.335Z,7.10
2022-09-30T23:05:36.614Z,6.43
2022-09-30T23:08:04.227Z,6.57
2022-09-30T23:10:31.851Z,7.00
2022-09-30T23:13:00.292Z,7.68
2022-09-30T23:15:27.997Z,7.60
2022-09-30T23:17:55.602Z,8.23
2022-09-30T23:20:23.275Z,7.53
2022-09-30T23:22:52.232Z,7.38
2022-09-30T23:25:19.818Z,9.13
2022-09-30T23:27:48.832Z,8.90
2022-09-30T23:30:16.696Z,8.02
2022-09-30T23:32:44.303Z,8.80
2022-09-30T23:35:12.990Z,7.93
2022-09-30T23:37:40.729Z,8.52
2022-09-30T23:40:10.588Z,8.27
2022-09-30T23:42:38.182Z,8.60
2022-09-30T23:45:06.218Z,9.20
2022-09-30T23:47:34.384Z,9.00
2022-09-30T23:50:01.995Z,9.52
2022-09-30T23:52:29.887Z,9.82
2022-09-30T23:54:57.524Z,8.65
2022-09-30T23:57:26.533Z,8.38
2022-09-30T23:59:54.143Z,8.07
